Greenville, Georgia
Current Conditions -  °F | °C
As of 12:55 PM on Tuesday 21 Oct 2014 (Local Time) from KCCO Reporting Station
Clear Clear  
Wind Chill: 72°   Ceiling: Unl
Heat Index: 72°   Visibility: 10mi
Dew Point: 58°   Wind: 5mph
Humidity: 62%   Direction: 260°W
Pressure: 30.03"   Gusts: NA
Location:  33.03°N, 84.71°W
Report Text: KCCO 211655Z AUTO 26004KT 10SM CLR 22/14 A3003 RMK AO2 T02200143
Loading
Personal Weather Stations






























Interactive Weather Map
Tropical Storm Tracking
New forecast layout! Learn more

10-Day Weather Forecast

Advertisements
Track Severe Weather on mobile